Time;durP1;ratioP1;P1;durP2;ratioP2;P2;SDS_P1;SDS_P2;PMS_P1;PMS_P2;Temp;Humidity;BMP_temperature;BMP_pressure;BME280_temperature;BME280_humidity;BME280_pressure;Samples;Min_cycle;Max_cycle;Signal;HPM_P1;HPM_P2
2022/04/19 00:00:45;;;;;;;5.70;4.37;;;7.40;96.80;;;;;;5113163;28;20211;-51
2022/04/19 00:03:15;;;;;;;6.60;4.47;;;7.30;97.20;;;;;;5113451;28;20226;-49
2022/04/19 00:05:44;;;;;;;7.30;5.30;;;7.30;97.50;;;;;;5114244;28;20233;-51
2022/04/19 00:08:15;;;;;;;6.63;5.07;;;7.30;97.50;;;;;;5113726;28;20257;-50
2022/04/19 00:10:44;;;;;;;7.70;4.20;;;7.30;96.90;;;;;;5114516;28;20268;-50
2022/04/19 00:13:13;;;;;;;7.00;5.83;;;7.20;96.80;;;;;;5113534;28;20229;-50
2022/04/19 00:15:42;;;;;;;12.57;11.27;;;7.20;96.90;;;;;;5114371;28;20246;-49
2022/04/19 00:18:12;;;;;;;15.27;13.67;;;7.20;96.80;;;;;;5114139;28;20206;-50
2022/04/19 00:20:42;;;;;;;6.07;5.17;;;7.10;96.90;;;;;;5113775;28;20674;-50
2022/04/19 00:23:13;;;;;;;5.20;4.57;;;7.10;96.90;;;;;;5113445;28;20759;-50
2022/04/19 00:25:42;;;;;;;5.60;4.90;;;7.00;97.10;;;;;;5113430;28;20734;-50
2022/04/19 00:28:11;;;;;;;8.70;6.07;;;7.00;97.10;;;;;;5114103;28;20211;-50
2022/04/19 00:30:39;;;;;;;10.17;8.80;;;7.00;97.10;;;;;;5112236;28;20214;-50
2022/04/19 00:33:08;;;;;;;6.10;4.80;;;7.00;97.00;;;;;;5112905;28;20321;-50
2022/04/19 00:35:39;;;;;;;6.67;6.07;;;7.00;97.50;;;;;;5112515;28;20268;-50
2022/04/19 00:38:07;;;;;;;6.47;5.10;;;6.90;97.30;;;;;;5118385;27;20254;-50
2022/04/19 00:40:35;;;;;;;6.17;4.70;;;6.90;97.40;;;;;;5125167;27;20276;-51
2022/04/19 00:43:05;;;;;;;5.93;4.70;;;6.80;97.70;;;;;;5123605;27;20647;-49
2022/04/19 00:45:34;;;;;;;5.53;4.70;;;6.70;97.80;;;;;;5125778;27;20220;-50
2022/04/19 00:48:03;;;;;;;6.33;4.83;;;6.60;97.80;;;;;;5121502;27;20206;-50
2022/04/19 00:50:32;;;;;;;5.73;5.13;;;6.60;98.10;;;;;;5122693;27;20219;-50
2022/04/19 00:53:03;;;;;;;5.17;4.67;;;6.60;97.90;;;;;;5133189;27;20225;-50
2022/04/19 00:55:33;;;;;;;5.90;4.97;;;6.60;97.90;;;;;;5127837;27;20255;-50
2022/04/19 00:58:01;;;;;;;6.17;4.87;;;6.50;97.90;;;;;;5127124;27;20214;-49
2022/04/19 01:00:29;;;;;;;6.70;5.30;;;6.50;97.90;;;;;;5131162;27;20220;-50
2022/04/19 01:02:57;;;;;;;8.33;5.07;;;6.50;98.00;;;;;;5112635;27;20230;-50
2022/04/19 01:05:32;;;;;;;6.17;4.90;;;6.50;98.00;;;;;;5113329;28;20195;-50
2022/04/19 01:08:02;;;;;;;5.90;5.00;;;6.40;98.20;;;;;;5112693;28;20204;-50
2022/04/19 01:10:31;;;;;;;6.17;4.80;;;6.40;98.40;;;;;;5096745;28;20199;-50
2022/04/19 01:15:47;;;;;;;5.63;4.60;;;6.30;98.30;;;;;;5122955;27;20199;-50
2022/04/19 01:18:20;;;;;;;7.03;4.60;;;6.20;98.30;;;;;;5125981;27;20703;-50
2022/04/19 01:20:49;;;;;;;5.23;4.73;;;6.20;98.40;;;;;;5111221;28;20226;-50
2022/04/19 01:23:20;;;;;;;7.23;4.97;;;6.20;98.40;;;;;;5110289;28;20235;-49
2022/04/19 01:25:48;;;;;;;6.97;5.20;;;6.20;98.60;;;;;;5110959;28;20632;-50
2022/04/19 01:28:20;;;;;;;5.50;4.93;;;6.10;98.70;;;;;;5112138;28;20211;-51
2022/04/19 01:30:52;;;;;;;5.93;5.03;;;6.10;98.70;;;;;;5111091;28;20202;-50
2022/04/19 01:33:21;;;;;;;5.30;4.80;;;6.00;98.60;;;;;;5112476;28;20224;-50
2022/04/19 01:35:50;;;;;;;5.83;4.70;;;6.00;98.40;;;;;;5112969;28;20203;-49
2022/04/19 01:38:19;;;;;;;6.50;5.03;;;6.00;98.50;;;;;;5113499;28;20203;-50
2022/04/19 01:40:48;;;;;;;5.63;5.03;;;6.00;98.50;;;;;;5111255;28;20237;-51
2022/04/19 01:43:16;;;;;;;5.90;4.87;;;5.90;98.40;;;;;;5112588;27;20243;-50
2022/04/19 01:45:44;;;;;;;5.87;5.20;;;5.90;98.50;;;;;;5113654;27;20566;-50
2022/04/19 01:48:12;;;;;;;5.67;5.07;;;5.90;98.60;;;;;;5112163;28;20200;-49
2022/04/19 01:50:40;;;;;;;6.23;4.43;;;5.90;98.80;;;;;;5111727;28;20225;-50
2022/04/19 01:53:08;;;;;;;6.30;4.83;;;5.90;98.50;;;;;;5129898;27;20233;-50
2022/04/19 01:55:38;;;;;;;6.63;5.00;;;5.80;98.40;;;;;;5132565;27;20267;-50
2022/04/19 01:58:06;;;;;;;5.20;4.70;;;5.80;98.20;;;;;;5132548;27;20738;-50
2022/04/19 02:00:34;;;;;;;5.47;4.93;;;5.80;98.40;;;;;;5132018;27;20222;-50
2022/04/19 02:03:03;;;;;;;6.13;4.93;;;5.80;98.40;;;;;;5131393;27;20279;-50
2022/04/19 02:05:31;;;;;;;7.13;5.10;;;5.70;98.50;;;;;;5132007;27;20691;-50
2022/04/19 02:07:59;;;;;;;5.10;4.60;;;5.70;98.40;;;;;;5115180;27;20674;-50
2022/04/19 02:10:28;;;;;;;5.90;4.80;;;5.70;98.50;;;;;;5092407;28;20226;-50
2022/04/19 02:12:57;;;;;;;5.33;4.83;;;5.70;98.50;;;;;;5090955;28;20265;-49
2022/04/19 02:15:25;;;;;;;5.47;4.40;;;5.70;98.30;;;;;;5098946;28;20306;-50
2022/04/19 02:17:53;;;;;;;5.20;4.70;;;5.70;98.20;;;;;;5111946;28;20206;-50
2022/04/19 02:20:21;;;;;;;5.27;4.50;;;5.70;98.30;;;;;;5111583;28;20226;-50
2022/04/19 02:22:49;;;;;;;7.53;5.00;;;5.60;98.20;;;;;;5111078;28;20227;-50
2022/04/19 02:25:19;;;;;;;5.23;4.73;;;5.60;98.20;;;;;;5111893;28;20353;-50
2022/04/19 02:27:47;;;;;;;6.30;5.30;;;5.60;98.20;;;;;;5111589;28;20218;-50
2022/04/19 02:30:18;;;;;;;7.07;4.90;;;5.60;98.10;;;;;;5111328;28;20262;-50
2022/04/19 02:32:47;;;;;;;5.57;4.77;;;5.60;98.00;;;;;;5110293;28;20234;-50
2022/04/19 02:35:18;;;;;;;7.47;5.40;;;5.60;98.00;;;;;;5111398;28;20211;-50
2022/04/19 02:37:50;;;;;;;7.60;5.40;;;5.60;98.00;;;;;;5111281;28;20306;-50
2022/04/19 02:40:19;;;;;;;5.93;4.73;;;5.60;97.90;;;;;;5111431;28;20226;-50
2022/04/19 02:42:48;;;;;;;5.77;4.50;;;5.60;97.90;;;;;;5111016;28;20701;-50
2022/04/19 02:45:19;;;;;;;5.43;4.47;;;5.60;97.80;;;;;;5111161;28;20202;-50
2022/04/19 02:47:48;;;;;;;6.90;5.03;;;5.60;97.80;;;;;;5111010;28;20247;-50
2022/04/19 02:50:16;;;;;;;5.73;4.80;;;5.50;97.70;;;;;;5111332;28;20210;-50
2022/04/19 02:52:45;;;;;;;4.93;4.53;;;5.50;97.80;;;;;;5110300;28;20222;-50
2022/04/19 02:55:13;;;;;;;9.40;5.10;;;5.50;98.00;;;;;;5110836;28;20229;-50
2022/04/19 02:57:41;;;;;;;6.77;5.67;;;5.50;97.90;;;;;;5111478;28;20203;-50
2022/04/19 03:00:11;;;;;;;6.67;5.60;;;5.50;98.20;;;;;;5111269;28;20230;-50
2022/04/19 03:02:41;;;;;;;6.10;5.00;;;5.40;98.30;;;;;;5110722;28;20236;-50
2022/04/19 03:05:09;;;;;;;6.73;4.63;;;5.40;98.20;;;;;;5111165;28;20241;-50
2022/04/19 03:07:38;;;;;;;4.90;4.50;;;5.30;98.40;;;;;;5110756;28;20234;-50
2022/04/19 03:10:07;;;;;;;5.23;4.73;;;5.30;98.70;;;;;;5110932;28;20263;-49
2022/04/19 03:12:35;;;;;;;6.57;4.77;;;5.30;99.00;;;;;;5110453;28;20212;-50
2022/04/19 03:15:03;;;;;;;5.77;5.00;;;5.30;98.70;;;;;;5113847;28;20206;-50
2022/04/19 03:17:31;;;;;;;5.37;4.80;;;5.30;98.60;;;;;;5115472;28;20208;-49
2022/04/19 03:20:01;;;;;;;5.50;4.93;;;5.20;98.70;;;;;;5115598;28;20222;-50
2022/04/19 03:27:41;;;;;;;5.73;5.13;;;5.10;98.70;;;;;;5114459;28;20210;-50
2022/04/19 03:28:04;;;;;;;5.43;4.77;;;5.10;98.70;;;;;;5115168;28;20205;-48
2022/04/19 03:30:32;;;;;;;6.30;4.90;;;5.10;99.00;;;;;;5113983;28;20192;-50
2022/04/19 03:33:00;;;;;;;5.20;4.70;;;5.00;99.40;;;;;;5113912;27;20234;-50
2022/04/19 03:35:30;;;;;;;6.50;5.80;;;5.00;99.50;;;;;;5115108;28;20209;-50
2022/04/19 03:37:58;;;;;;;5.30;4.80;;;5.00;99.50;;;;;;5114914;28;20207;-50
2022/04/19 03:40:26;;;;;;;5.57;4.93;;;4.90;99.70;;;;;;5114935;28;20229;-50
2022/04/19 03:42:55;;;;;;;5.97;5.27;;;4.80;99.80;;;;;;5114098;28;20223;-50
2022/04/19 03:45:23;;;;;;;5.50;5.00;;;4.80;99.90;;;;;;5115286;28;20201;-50
2022/04/19 03:47:52;;;;;;;6.50;5.27;;;4.80;99.90;;;;;;5114664;28;20210;-50
2022/04/19 03:50:20;;;;;;;5.70;5.10;;;4.80;99.90;;;;;;5114735;28;20206;-49
2022/04/19 03:52:50;;;;;;;6.07;5.20;;;4.80;99.90;;;;;;5111373;27;20225;-50
2022/04/19 03:55:19;;;;;;;6.20;5.10;;;4.80;99.90;;;;;;5113972;28;20200;-50
2022/04/19 03:57:47;;;;;;;6.20;5.00;;;4.70;99.90;;;;;;5114391;27;20201;-50
2022/04/19 04:00:16;;;;;;;6.13;5.03;;;4.70;99.90;;;;;;5113895;28;20755;-50
2022/04/19 04:02:44;;;;;;;6.37;4.77;;;4.70;99.90;;;;;;5113465;28;20215;-50
2022/04/19 04:05:12;;;;;;;6.60;5.07;;;4.80;99.90;;;;;;5114324;28;20297;-50
2022/04/19 04:07:40;;;;;;;5.23;4.73;;;4.80;99.90;;;;;;5118512;27;20265;-51
2022/04/19 04:10:10;;;;;;;7.77;6.00;;;4.80;99.90;;;;;;5112966;28;20304;-50
2022/04/19 04:12:38;;;;;;;6.63;5.73;;;4.80;99.90;;;;;;5111543;28;20205;-49
2022/04/19 04:15:08;;;;;;;6.17;5.37;;;4.80;99.90;;;;;;5111544;28;20210;-50
2022/04/19 04:17:36;;;;;;;8.20;5.70;;;4.70;99.90;;;;;;5111187;28;20842;-50
2022/04/19 04:20:04;;;;;;;9.83;5.13;;;4.70;99.90;;;;;;5109258;28;20201;-50
2022/04/19 04:22:32;;;;;;;6.20;5.47;;;4.60;99.90;;;;;;5110377;28;20221;-49
2022/04/19 04:25:02;;;;;;;6.03;5.40;;;4.70;99.90;;;;;;5111258;28;20201;-50
2022/04/19 04:27:31;;;;;;;6.63;5.20;;;4.70;99.90;;;;;;5112707;28;20200;-50
2022/04/19 04:30:00;;;;;;;7.33;5.33;;;4.60;99.90;;;;;;5112899;28;20204;-50
2022/04/19 04:32:28;;;;;;;6.63;5.53;;;4.60;99.90;;;;;;5110880;28;20264;-50
2022/04/19 04:34:56;;;;;;;6.30;5.40;;;4.70;99.90;;;;;;5110764;28;20211;-50
2022/04/19 04:37:24;;;;;;;7.10;4.97;;;4.70;99.90;;;;;;5105046;28;20200;-51
2022/04/19 04:39:52;;;;;;;5.90;5.13;;;4.70;99.90;;;;;;5106413;28;20199;-50
2022/04/19 04:42:21;;;;;;;6.53;5.40;;;4.70;99.90;;;;;;5110461;28;20227;-50
2022/04/19 04:44:50;;;;;;;5.70;4.97;;;4.70;99.90;;;;;;5109166;28;20207;-50
2022/04/19 04:50:05;;;;;;;5.87;5.30;;;4.70;99.90;;;;;;5100699;28;20276;-49
2022/04/19 04:52:33;;;;;;;6.70;5.23;;;4.70;99.90;;;;;;5102677;28;20195;-50
2022/04/19 04:55:02;;;;;;;8.03;5.17;;;4.80;99.90;;;;;;5112522;28;20260;-49
2022/04/19 04:57:30;;;;;;;7.87;5.10;;;5.00;99.90;;;;;;5112833;28;20212;-51
2022/04/19 04:59:59;;;;;;;5.67;5.07;;;5.50;99.90;;;;;;5112743;28;20200;-53
2022/04/19 05:02:28;;;;;;;7.13;5.60;;;6.00;99.90;;;;;;5109751;28;20227;-51
2022/04/19 05:04:56;;;;;;;6.90;5.57;;;6.40;99.90;;;;;;5112266;28;20208;-53
2022/04/19 05:07:24;;;;;;;5.60;5.10;;;6.80;99.90;;;;;;5109315;28;20235;-52
2022/04/19 05:09:58;;;;;;;6.53;5.30;;;7.00;99.90;;;;;;5112445;28;20210;-52
2022/04/19 05:12:26;;;;;;;7.77;5.23;;;7.20;99.90;;;;;;5111007;28;20239;-51
2022/04/19 05:14:55;;;;;;;6.13;5.10;;;7.30;99.90;;;;;;5111360;28;20214;-52
2022/04/19 05:17:24;;;;;;;6.03;4.60;;;7.30;99.90;;;;;;5111749;28;20201;-49
2022/04/19 05:19:54;;;;;;;6.30;5.70;;;7.20;99.90;;;;;;5112488;28;20207;-50
2022/04/19 05:22:23;;;;;;;6.47;5.70;;;7.00;99.90;;;;;;5111718;28;20231;-50
2022/04/19 05:24:51;;;;;;;6.10;5.50;;;6.90;99.90;;;;;;5111769;28;20207;-50
2022/04/19 05:27:19;;;;;;;6.43;5.70;;;6.70;99.90;;;;;;5111916;28;20264;-50
2022/04/19 05:29:47;;;;;;;7.07;5.90;;;6.70;99.90;;;;;;5112528;28;20208;-50
2022/04/19 05:32:16;;;;;;;5.97;5.23;;;6.80;99.90;;;;;;5111448;28;20211;-50
2022/04/19 05:34:47;;;;;;;8.23;5.53;;;7.10;99.90;;;;;;5103341;27;20338;-50
2022/04/19 05:37:15;;;;;;;7.27;5.80;;;7.20;99.90;;;;;;5120617;27;20211;-50
2022/04/19 05:39:43;;;;;;;5.87;5.27;;;7.30;99.90;;;;;;5114660;28;20207;-50
2022/04/19 05:42:12;;;;;;;9.20;6.13;;;7.20;99.90;;;;;;5113167;28;20223;-50
2022/04/19 05:44:40;;;;;;;7.80;5.83;;;7.30;99.90;;;;;;5112681;28;20228;-50
2022/04/19 05:47:09;;;;;;;5.67;5.00;;;7.40;99.90;;;;;;5113620;28;20203;-50
2022/04/19 05:49:37;;;;;;;5.87;5.27;;;7.40;99.90;;;;;;5112495;28;20206;-50
2022/04/19 05:52:08;;;;;;;8.60;6.63;;;7.40;99.90;;;;;;5110953;28;20210;-50
2022/04/19 05:54:41;;;;;;;8.47;6.53;;;7.40;99.90;;;;;;5111586;28;20332;-51
2022/04/19 05:57:10;;;;;;;8.57;7.03;;;7.50;99.90;;;;;;5111707;28;20752;-50
2022/04/19 05:59:38;;;;;;;8.00;6.90;;;7.60;99.90;;;;;;5111649;28;20622;-49
2022/04/19 06:04:57;;;;;;;9.70;7.20;;;7.80;99.90;;;;;;5111222;28;20203;-50
2022/04/19 06:07:27;;;;;;;8.17;6.23;;;8.10;99.90;;;;;;5123857;27;20199;-50
2022/04/19 06:09:57;;;;;;;8.50;5.83;;;8.10;99.90;;;;;;5116571;27;20210;-49
2022/04/19 06:12:25;;;;;;;8.30;6.27;;;8.20;99.90;;;;;;5111334;28;20187;-50
2022/04/19 06:14:53;;;;;;;8.20;6.03;;;8.10;99.90;;;;;;5111103;28;20204;-51
2022/04/19 06:17:22;;;;;;;8.27;6.23;;;8.20;99.90;;;;;;5111723;28;20200;-51
2022/04/19 06:19:50;;;;;;;6.80;6.10;;;8.90;99.90;;;;;;5111574;28;20207;-51
2022/04/19 06:22:19;;;;;;;6.70;5.80;;;9.70;99.90;;;;;;5110895;28;20299;-51
2022/04/19 06:24:48;;;;;;;8.50;6.80;;;10.40;99.90;;;;;;5110811;28;20211;-49
2022/04/19 06:27:17;;;;;;;8.10;6.50;;;10.80;99.90;;;;;;5109819;28;20203;-51
2022/04/19 06:29:45;;;;;;;7.70;6.07;;;11.40;99.90;;;;;;5108633;28;20203;-50
2022/04/19 06:32:13;;;;;;;9.13;7.50;;;12.00;99.90;;;;;;5108844;28;20355;-50
2022/04/19 06:34:41;;;;;;;8.03;6.43;;;12.30;99.60;;;;;;5109216;28;20255;-50
2022/04/19 06:37:10;;;;;;;7.03;6.03;;;12.70;99.50;;;;;;5109154;28;20257;-50
2022/04/19 06:39:38;;;;;;;6.40;5.80;;;13.10;99.10;;;;;;5108938;28;20207;-51
2022/04/19 06:42:09;;;;;;;8.80;5.90;;;13.30;99.20;;;;;;5108568;28;20241;-51
2022/04/19 06:44:37;;;;;;;7.28;6.20;;;13.80;98.50;;;;;;5108647;28;20280;-51
2022/04/19 06:47:07;;;;;;;7.20;6.10;;;14.00;98.40;;;;;;5109290;28;20204;-51
2022/04/19 06:49:35;;;;;;;6.40;5.80;;;14.40;98.80;;;;;;5112089;28;20226;-51
2022/04/19 06:52:06;;;;;;;7.28;6.30;;;14.60;98.20;;;;;;5113038;28;20676;-50
2022/04/19 06:54:34;;;;;;;6.85;6.15;;;14.90;98.10;;;;;;5105914;28;21231;-50
2022/04/19 06:57:02;;;;;;;6.82;5.85;;;15.20;96.70;;;;;;5096552;28;20680;-49
2022/04/19 06:59:32;;;;;;;6.68;5.85;;;15.30;97.40;;;;;;5114716;28;20207;-50
2022/04/19 07:02:00;;;;;;;6.95;6.25;;;15.50;97.50;;;;;;5114108;28;20252;-50
2022/04/19 07:04:29;;;;;;;8.95;6.38;;;15.80;96.20;;;;;;5114044;28;20254;-50
2022/04/19 07:06:57;;;;;;;9.07;7.50;;;16.10;96.40;;;;;;5115009;28;20199;-50
2022/04/19 07:09:26;;;;;;;9.15;7.47;;;16.20;93.10;;;;;;5114414;28;20195;-51
2022/04/19 07:11:54;;;;;;;8.43;6.47;;;16.50;92.70;;;;;;5114578;28;20210;-51
2022/04/19 07:14:22;;;;;;;10.20;7.03;;;16.50;90.50;;;;;;5113641;28;20224;-51
2022/04/19 07:16:52;;;;;;;9.30;7.32;;;16.70;86.50;;;;;;5114364;28;20241;-50
2022/04/19 07:19:20;;;;;;;8.07;6.95;;;17.00;86.90;;;;;;5114653;28;20222;-51
2022/04/19 07:27:23;;;;;;;8.23;6.63;;;17.60;79.30;;;;;;5116193;28;20195;-50
2022/04/19 07:29:52;;;;;;;10.30;6.97;;;17.50;81.10;;;;;;5114566;28;20200;-51
2022/04/19 07:32:22;;;;;;;9.70;7.05;;;17.30;81.90;;;;;;5101225;28;20212;-51
2022/04/19 07:34:51;;;;;;;9.85;6.85;;;17.60;79.40;;;;;;5109066;28;20211;-51
2022/04/19 07:37:19;;;;;;;9.35;7.68;;;17.70;78.90;;;;;;5125850;27;20207;-51
2022/04/19 07:39:48;;;;;;;9.60;7.07;;;17.90;78.90;;;;;;5117977;27;20227;-51
2022/04/19 07:42:16;;;;;;;8.20;6.55;;;17.70;78.90;;;;;;5113951;28;20555;-50
2022/04/19 07:44:44;;;;;;;7.35;6.22;;;17.60;77.90;;;;;;5112144;28;20227;-51
2022/04/19 07:47:14;;;;;;;8.75;6.20;;;17.50;78.00;;;;;;5093429;28;20204;-51
2022/04/19 07:49:44;;;;;;;8.25;6.28;;;17.60;76.80;;;;;;5092053;28;20212;-50
2022/04/19 07:52:12;;;;;;;6.97;5.72;;;17.40;76.90;;;;;;5092943;28;20216;-51
2022/04/19 07:54:41;;;;;;;8.50;5.85;;;17.40;79.40;;;;;;5111220;27;20238;-50
2022/04/19 07:57:09;;;;;;;7.28;5.93;;;17.40;77.80;;;;;;5099526;28;20200;-51
2022/04/19 07:59:37;;;;;;;8.75;6.35;;;17.50;78.00;;;;;;5108780;28;20806;-50
2022/04/19 08:02:05;;;;;;;7.88;6.03;;;17.30;77.50;;;;;;5113836;28;20199;-50
2022/04/19 08:04:34;;;;;;;6.82;5.72;;;17.20;80.00;;;;;;5113467;28;20237;-50
2022/04/19 08:07:04;;;;;;;8.57;5.78;;;16.90;79.50;;;;;;5112986;28;20294;-51
2022/04/19 08:09:33;;;;;;;6.60;5.05;;;16.80;79.40;;;;;;5100452;27;20208;-50
2022/04/19 08:12:01;;;;;;;8.25;5.85;;;16.60;77.30;;;;;;5093347;28;20204;-50
2022/04/19 08:14:29;;;;;;;7.22;5.40;;;16.40;78.30;;;;;;5101090;27;20227;-50
2022/04/19 08:16:57;;;;;;;8.05;5.65;;;16.20;76.90;;;;;;5124906;27;20259;-50
2022/04/19 08:19:26;;;;;;;6.38;5.32;;;16.00;77.00;;;;;;5119281;27;20204;-50
2022/04/19 08:21:56;;;;;;;7.03;5.75;;;16.10;78.50;;;;;;5113395;28;20274;-50
2022/04/19 08:24:26;;;;;;;6.57;5.28;;;15.90;77.00;;;;;;5128509;27;20223;-49
2022/04/19 08:26:54;;;;;;;6.45;5.18;;;15.90;77.60;;;;;;5113177;28;20576;-49
2022/04/19 08:29:23;;;;;;;5.90;4.20;;;15.80;79.30;;;;;;5113404;28;20207;-49
2022/04/19 08:31:51;;;;;;;6.88;4.80;;;15.90;79.00;;;;;;5112221;28;20212;-49
2022/04/19 08:34:19;;;;;;;6.15;4.03;;;15.80;77.40;;;;;;5113144;28;20284;-49
2022/04/19 08:36:48;;;;;;;5.63;4.45;;;15.80;77.30;;;;;;5113336;28;20271;-52
2022/04/19 08:39:16;;;;;;;5.40;4.57;;;15.70;78.70;;;;;;5112494;28;20200;-50
2022/04/19 08:41:47;;;;;;;5.30;4.53;;;15.70;78.80;;;;;;5112700;28;20204;-48
2022/04/19 08:44:15;;;;;;;5.70;4.30;;;15.70;79.80;;;;;;5112724;28;20304;-50
2022/04/19 08:46:45;;;;;;;5.32;4.43;;;15.70;80.10;;;;;;5113398;27;20204;-50
2022/04/19 08:49:14;;;;;;;4.90;4.40;;;15.70;80.50;;;;;;5112280;28;20692;-49
2022/04/19 08:51:42;;;;;;;5.83;4.87;;;15.70;80.30;;;;;;5112512;28;20208;-50
2022/04/19 08:59:43;;;;;;;7.47;5.00;;;15.70;82.20;;;;;;5106278;28;20607;-49
2022/04/19 09:02:21;;;;;;;6.78;4.97;;;15.70;80.70;;;;;;5110700;27;20215;-49
2022/04/19 09:04:49;;;;;;;5.30;4.60;;;15.70;81.70;;;;;;5108568;28;20220;-50
2022/04/19 09:07:18;;;;;;;7.95;5.38;;;15.70;82.40;;;;;;5112266;28;20277;-49
2022/04/19 09:09:59;;;;;;;5.53;4.68;;;15.60;81.80;;;;;;5110595;28;20204;-50
2022/04/19 09:12:29;;;;;;;5.85;4.38;;;15.50;80.90;;;;;;5111098;28;20207;-51
2022/04/19 09:14:58;;;;;;;6.00;4.30;;;15.60;81.10;;;;;;5112209;28;20737;-50
2022/04/19 09:17:32;;;;;;;6.15;4.68;;;15.60;81.80;;;;;;5112272;28;20207;-49
2022/04/19 09:20:10;;;;;;;5.63;4.22;;;15.60;81.00;;;;;;5112783;27;20565;-50
2022/04/19 09:22:39;;;;;;;6.47;4.73;;;15.60;81.20;;;;;;5110836;28;20196;-50
2022/04/19 09:25:18;;;;;;;5.57;4.10;;;15.60;79.80;;;;;;5107980;28;20745;-50
2022/04/19 09:27:50;;;;;;;6.23;4.50;;;15.70;80.50;;;;;;5111852;28;20252;-50
2022/04/19 09:30:20;;;;;;;5.20;4.30;;;15.70;81.00;;;;;;5116365;27;20218;-49
2022/04/19 09:33:02;;;;;;;5.90;4.43;;;15.90;83.10;;;;;;5119961;27;20255;-50
2022/04/19 09:35:30;;;;;;;5.82;4.57;;;15.80;79.40;;;;;;5111794;28;20207;-50
2022/04/19 09:37:58;;;;;;;5.13;4.13;;;15.70;80.60;;;;;;5112314;28;20211;-49
2022/04/19 09:40:35;;;;;;;5.60;3.95;;;15.70;81.90;;;;;;5111632;28;20729;-50
2022/04/19 09:43:13;;;;;;;6.83;4.50;;;15.70;80.70;;;;;;5111431;28;20284;-50
2022/04/19 09:46:03;;;;;;;5.93;4.47;;;15.70;81.80;;;;;;5111815;28;20206;-50
2022/04/19 09:48:33;;;;;;;6.17;4.37;;;15.70;81.50;;;;;;5109148;28;20204;-50
2022/04/19 09:51:03;;;;;;;5.93;4.23;;;15.70;83.00;;;;;;5111236;28;20203;-51
2022/04/19 09:53:39;;;;;;;5.75;4.82;;;15.80;83.30;;;;;;5110965;28;20220;-49
2022/04/19 09:56:10;;;;;;;6.63;4.50;;;15.70;83.70;;;;;;5093815;28;20343;-50
2022/04/19 09:58:40;;;;;;;5.73;4.67;;;15.70;83.20;;;;;;5101376;27;20200;-49
2022/04/19 10:08:10;;;;;;;8.98;4.30;;;15.70;83.80;;;;;;5110292;27;20749;-50
2022/04/19 10:09:33;;;;;;;5.60;3.92;;;15.80;82.40;;;;;;5093916;27;20291;-49
2022/04/19 10:12:02;;;;;;;4.60;3.60;;;15.90;83.30;;;;;;5092420;28;20216;-50
2022/04/19 10:14:33;;;;;;;5.80;4.20;;;16.00;83.60;;;;;;5088388;28;20883;-50
2022/04/19 10:17:02;;;;;;;5.85;3.90;;;16.00;82.10;;;;;;5089301;28;20242;-50
2022/04/19 10:19:31;;;;;;;4.88;3.50;;;15.90;80.80;;;;;;5088749;28;20678;-50
2022/04/19 10:22:06;;;;;;;4.97;3.73;;;15.90;81.90;;;;;;5092548;27;20254;-49
2022/04/19 10:24:46;;;;;;;5.03;3.63;;;15.80;79.20;;;;;;5128684;27;20230;-50
2022/04/19 10:27:14;;;;;;;3.78;3.10;;;15.80;80.80;;;;;;5130186;27;20263;-50
2022/04/19 10:29:45;;;;;;;4.15;2.72;;;15.80;80.60;;;;;;5131469;27;20203;-50
2022/04/19 10:32:13;;;;;;;3.10;2.60;;;15.80;81.80;;;;;;5110248;28;20215;-50
2022/04/19 10:34:44;;;;;;;4.32;2.72;;;15.80;79.70;;;;;;5109545;28;20226;-50
2022/04/19 10:37:30;;;;;;;4.03;3.00;;;15.80;79.20;;;;;;5100547;28;20214;-50
2022/04/19 10:40:12;;;;;;;3.33;2.77;;;15.90;79.10;;;;;;5110962;28;20276;-50
2022/04/19 10:42:43;;;;;;;3.75;3.42;;;15.90;79.60;;;;;;5110585;28;20184;-50
2022/04/19 10:45:25;;;;;;;4.03;3.40;;;15.80;80.50;;;;;;5110771;28;20342;-50
2022/04/19 10:48:05;;;;;;;3.83;3.17;;;15.70;80.00;;;;;;5110533;28;20210;-50
2022/04/19 10:50:34;;;;;;;4.32;3.28;;;15.70;79.30;;;;;;5111028;28;20264;-50
2022/04/19 10:53:04;;;;;;;4.03;3.63;;;15.60;79.20;;;;;;5109981;28;20262;-50
2022/04/19 10:55:33;;;;;;;4.53;3.65;;;15.60;80.70;;;;;;5111086;28;20230;-51
2022/04/19 10:58:16;;;;;;;4.07;3.57;;;15.60;82.00;;;;;;5106297;28;20212;-50
2022/04/19 11:00:54;;;;;;;3.80;3.00;;;15.60;81.00;;;;;;5089779;28;20566;-50
2022/04/19 11:03:49;;;;;;;3.38;3.08;;;15.70;83.30;;;;;;5089972;28;20228;-50
2022/04/19 11:06:36;;;;;;;4.25;3.42;;;15.80;81.80;;;;;;5089772;28;20203;-50
2022/04/19 11:09:19;;;;;;;3.88;3.40;;;15.90;83.60;;;;;;5118752;28;20238;-50
2022/04/19 11:11:49;;;;;;;4.32;3.50;;;15.80;83.20;;;;;;5118131;28;20231;-50
2022/04/19 11:14:36;;;;;;;4.15;3.63;;;16.00;84.80;;;;;;5109759;28;20791;-50
2022/04/19 11:17:24;;;;;;;4.40;3.87;;;15.90;84.40;;;;;;5110171;28;20204;-50
2022/04/19 11:20:10;;;;;;;3.85;2.88;;;16.00;85.50;;;;;;5110814;28;20192;-50
2022/04/19 11:22:51;;;;;;;2.75;2.28;;;16.00;83.90;;;;;;5109501;28;20724;-50
2022/04/19 11:25:40;;;;;;;3.10;2.45;;;16.00;81.50;;;;;;5109576;28;20241;-50
2022/04/19 11:28:25;;;;;;;3.25;2.63;;;15.90;81.60;;;;;;5106082;28;20200;-50
2022/04/19 11:31:10;;;;;;;3.08;2.78;;;16.00;81.70;;;;;;5109244;28;20207;-51
2022/04/19 11:33:39;;;;;;;3.10;2.80;;;16.00;83.30;;;;;;5109295;28;20234;-50
2022/04/19 11:36:09;;;;;;;5.80;3.13;;;16.00;81.80;;;;;;5112546;28;20207;-50
2022/04/19 11:38:42;;;;;;;3.05;2.40;;;15.90;81.70;;;;;;5113914;28;20208;-51
2022/04/19 11:46:51;;;;;;;7.13;2.08;;;15.90;77.10;;;;;;5099291;28;20581;-51
2022/04/19 11:49:41;;;;;;;3.25;2.45;;;16.00;78.30;;;;;;5111672;28;20252;-51
2022/04/19 11:52:12;;;;;;;3.10;2.35;;;16.00;77.70;;;;;;5089366;28;20204;-51
2022/04/19 11:54:40;;;;;;;2.40;2.20;;;15.90;78.40;;;;;;5091640;28;20223;-51
2022/04/19 11:57:10;;;;;;;3.33;2.30;;;15.90;77.80;;;;;;5107698;28;20219;-50
2022/04/19 11:59:40;;;;;;;2.55;2.35;;;16.00;77.70;;;;;;5112722;28;20207;-51
2022/04/19 12:02:14;;;;;;;3.10;2.33;;;15.90;78.60;;;;;;5112020;28;20211;-51
2022/04/19 12:04:52;;;;;;;2.13;1.85;;;16.00;78.80;;;;;;5112347;28;20241;-51
2022/04/19 12:07:21;;;;;;;4.45;2.05;;;16.00;76.80;;;;;;5111605;28;20222;-51
2022/04/19 12:09:51;;;;;;;2.55;2.08;;;15.90;76.60;;;;;;5111365;28;20268;-50
2022/04/19 12:12:20;;;;;;;3.85;1.67;;;16.00;77.20;;;;;;5107000;28;20256;-51
2022/04/19 12:14:52;;;;;;;1.90;1.80;;;16.00;76.90;;;;;;5111977;28;20632;-51
2022/04/19 12:17:24;;;;;;;1.83;1.73;;;16.10;76.10;;;;;;5112123;28;20247;-51
2022/04/19 12:20:03;;;;;;;2.70;2.08;;;16.10;76.80;;;;;;5111797;28;20556;-51
2022/04/19 12:22:35;;;;;;;2.58;2.05;;;16.10;76.10;;;;;;5111664;28;20257;-51
2022/04/19 12:25:06;;;;;;;3.55;2.08;;;16.20;76.70;;;;;;5110650;28;20219;-51
2022/04/19 12:27:37;;;;;;;3.70;2.30;;;16.10;77.90;;;;;;5094762;28;20207;-51
2022/04/19 12:30:08;;;;;;;3.35;1.90;;;16.20;78.30;;;;;;5098077;28;20200;-50
2022/04/19 12:32:52;;;;;;;3.70;1.75;;;16.40;77.60;;;;;;5098367;28;20235;-50
2022/04/19 12:35:26;;;;;;;2.03;1.83;;;16.30;77.70;;;;;;5099453;28;20196;-51
2022/04/19 12:38:09;;;;;;;1.80;1.70;;;16.40;76.80;;;;;;5098133;28;20206;-51
2022/04/19 12:40:37;;;;;;;1.80;1.60;;;16.30;76.30;;;;;;5097342;28;20203;-50
2022/04/19 12:43:06;;;;;;;1.95;1.70;;;16.40;76.60;;;;;;5099469;28;20794;-50
2022/04/19 12:45:36;;;;;;;3.78;1.73;;;16.50;75.60;;;;;;5106030;28;20235;-53
2022/04/19 12:48:06;;;;;;;3.53;2.20;;;16.40;75.80;;;;;;5111336;28;20294;-53
2022/04/19 12:50:36;;;;;;;2.45;1.92;;;16.40;75.90;;;;;;5111562;28;20215;-53
2022/04/19 12:53:21;;;;;;;3.58;1.85;;;16.40;76.90;;;;;;5109661;28;20235;-50
2022/04/19 12:55:49;;;;;;;4.38;1.80;;;16.40;77.10;;;;;;5110457;27;20340;-50
2022/04/19 12:58:17;;;;;;;1.83;1.73;;;16.50;77.90;;;;;;5106079;28;20276;-50
2022/04/19 13:00:45;;;;;;;1.65;1.55;;;16.50;77.00;;;;;;5111655;28;20203;-51
2022/04/19 13:03:16;;;;;;;3.97;1.60;;;16.50;77.90;;;;;;5106814;28;20594;-51
2022/04/19 13:14:02;;;;;;;2.88;1.58;;;16.80;77.40;;;;;;5110149;28;20711;-51
2022/04/19 13:16:32;;;;;;;2.47;1.70;;;16.90;79.10;;;;;;5111212;28;20225;-51
2022/04/19 13:19:00;;;;;;;2.13;1.75;;;16.80;77.50;;;;;;5113120;27;20199;-51
2022/04/19 13:21:30;;;;;;;2.60;1.50;;;17.00;77.50;;;;;;5112649;27;20211;-51
2022/04/19 13:24:06;;;;;;;1.50;1.40;;;16.90;76.90;;;;;;5108186;28;20250;-51
2022/04/19 13:26:35;;;;;;;2.72;1.90;;;16.80;76.60;;;;;;5110937;28;20231;-51
2022/04/19 13:29:08;;;;;;;2.15;1.42;;;16.70;75.80;;;;;;5110670;28;20760;-50
2022/04/19 13:31:36;;;;;;;1.67;1.30;;;16.80;78.30;;;;;;5111281;28;20211;-51
2022/04/19 13:34:04;;;;;;;4.20;1.27;;;16.90;77.30;;;;;;5112831;27;20228;-51
2022/04/19 13:36:34;;;;;;;1.88;1.77;;;16.90;79.00;;;;;;5110833;27;20229;-50
2022/04/19 13:39:02;;;;;;;2.33;2.15;;;16.90;73.00;;;;;;5111179;28;20216;-50
2022/04/19 13:41:30;;;;;;;2.17;1.20;;;16.90;73.00;;;;;;5111312;28;20249;-50
2022/04/19 13:43:58;;;;;;;1.85;1.33;;;16.80;70.50;;;;;;5108372;28;20223;-50
2022/04/19 13:46:27;;;;;;;2.90;1.13;;;16.70;70.20;;;;;;5110946;28;20269;-50
2022/04/19 13:48:55;;;;;;;2.55;1.30;;;16.70;70.40;;;;;;5111024;28;20216;-50